sensor_id;sensor_type;location;lat;lon;timestamp;P1;durP1;ratioP1;P2;durP2;ratioP2
41711;SDS011;27399;51.516;13.670;2023-07-08T00:00:11;8.20;;;3.55;;
41711;SDS011;27399;51.516;13.670;2023-07-08T00:02:39;5.70;;;2.80;;
41711;SDS011;27399;51.516;13.670;2023-07-08T00:05:07;12.35;;;3.30;;
41711;SDS011;27399;51.516;13.670;2023-07-08T00:07:38;12.85;;;3.22;;
41711;SDS011;27399;51.516;13.670;2023-07-08T00:10:10;6.28;;;3.15;;
41711;SDS011;27399;51.516;13.670;2023-07-08T00:12:38;13.90;;;2.97;;
41711;SDS011;27399;51.516;13.670;2023-07-08T00:15:03;7.20;;;3.28;;
41711;SDS011;27399;51.516;13.670;2023-07-08T00:17:30;13.30;;;3.08;;
41711;SDS011;27399;51.516;13.670;2023-07-08T00:19:55;9.68;;;3.08;;
41711;SDS011;27399;51.516;13.670;2023-07-08T00:22:21;9.73;;;3.75;;
41711;SDS011;27399;51.516;13.670;2023-07-08T00:24:49;10.20;;;3.45;;
41711;SDS011;27399;51.516;13.670;2023-07-08T00:27:15;8.73;;;3.00;;
41711;SDS011;27399;51.516;13.670;2023-07-08T00:29:42;7.72;;;3.00;;
41711;SDS011;27399;51.516;13.670;2023-07-08T00:32:11;11.02;;;3.72;;
41711;SDS011;27399;51.516;13.670;2023-07-08T00:37:04;9.07;;;3.10;;
41711;SDS011;27399;51.516;13.670;2023-07-08T00:39:33;7.53;;;3.38;;
41711;SDS011;27399;51.516;13.670;2023-07-08T00:41:59;9.13;;;3.10;;
41711;SDS011;27399;51.516;13.670;2023-07-08T00:44:26;13.95;;;4.00;;
41711;SDS011;27399;51.516;13.670;2023-07-08T00:46:57;15.32;;;3.70;;
41711;SDS011;27399;51.516;13.670;2023-07-08T00:49:37;8.15;;;2.83;;
41711;SDS011;27399;51.516;13.670;2023-07-08T00:52:24;6.05;;;3.13;;
41711;SDS011;27399;51.516;13.670;2023-07-08T00:54:55;14.27;;;3.28;;
41711;SDS011;27399;51.516;13.670;2023-07-08T00:57:25;7.32;;;3.10;;
41711;SDS011;27399;51.516;13.670;2023-07-08T01:00:07;3.78;;;2.88;;
41711;SDS011;27399;51.516;13.670;2023-07-08T01:02:40;4.55;;;3.03;;
41711;SDS011;27399;51.516;13.670;2023-07-08T01:05:09;6.53;;;3.40;;
41711;SDS011;27399;51.516;13.670;2023-07-08T01:07:38;9.68;;;3.35;;
41711;SDS011;27399;51.516;13.670;2023-07-08T01:10:08;9.65;;;2.90;;
41711;SDS011;27399;51.516;13.670;2023-07-08T01:12:40;6.63;;;3.72;;
41711;SDS011;27399;51.516;13.670;2023-07-08T01:15:09;5.25;;;3.42;;
41711;SDS011;27399;51.516;13.670;2023-07-08T01:17:35;8.57;;;3.50;;
41711;SDS011;27399;51.516;13.670;2023-07-08T01:20:02;20.13;;;3.47;;
41711;SDS011;27399;51.516;13.670;2023-07-08T01:22:38;12.43;;;3.75;;
41711;SDS011;27399;51.516;13.670;2023-07-08T01:25:04;11.77;;;3.60;;
41711;SDS011;27399;51.516;13.670;2023-07-08T01:27:33;10.38;;;3.83;;
41711;SDS011;27399;51.516;13.670;2023-07-08T01:30:02;8.65;;;4.07;;
41711;SDS011;27399;51.516;13.670;2023-07-08T01:32:29;9.43;;;4.18;;
41711;SDS011;27399;51.516;13.670;2023-07-08T01:34:59;8.98;;;3.53;;
41711;SDS011;27399;51.516;13.670;2023-07-08T01:37:31;9.35;;;3.42;;
41711;SDS011;27399;51.516;13.670;2023-07-08T01:42:46;11.55;;;4.40;;
41711;SDS011;27399;51.516;13.670;2023-07-08T01:45:14;7.13;;;3.45;;
41711;SDS011;27399;51.516;13.670;2023-07-08T01:47:41;7.75;;;3.30;;
41711;SDS011;27399;51.516;13.670;2023-07-08T01:50:10;9.73;;;3.75;;
41711;SDS011;27399;51.516;13.670;2023-07-08T01:52:37;6.15;;;3.47;;
41711;SDS011;27399;51.516;13.670;2023-07-08T01:55:03;9.30;;;3.60;;
41711;SDS011;27399;51.516;13.670;2023-07-08T01:57:29;6.55;;;3.50;;
41711;SDS011;27399;51.516;13.670;2023-07-08T01:59:54;7.80;;;3.60;;
41711;SDS011;27399;51.516;13.670;2023-07-08T02:02:20;6.85;;;3.78;;
41711;SDS011;27399;51.516;13.670;2023-07-08T02:04:47;6.47;;;3.63;;
41711;SDS011;27399;51.516;13.670;2023-07-08T02:07:12;5.72;;;3.50;;
41711;SDS011;27399;51.516;13.670;2023-07-08T02:09:38;12.65;;;4.00;;
41711;SDS011;27399;51.516;13.670;2023-07-08T02:12:03;7.05;;;4.18;;
41711;SDS011;27399;51.516;13.670;2023-07-08T02:14:29;8.40;;;3.53;;
41711;SDS011;27399;51.516;13.670;2023-07-08T02:16:55;9.48;;;3.90;;
41711;SDS011;27399;51.516;13.670;2023-07-08T02:19:20;8.93;;;3.85;;
41711;SDS011;27399;51.516;13.670;2023-07-08T02:21:47;10.07;;;3.47;;
41711;SDS011;27399;51.516;13.670;2023-07-08T02:24:13;10.40;;;4.18;;
41711;SDS011;27399;51.516;13.670;2023-07-08T02:26:42;8.85;;;3.85;;
41711;SDS011;27399;51.516;13.670;2023-07-08T02:29:07;11.50;;;4.40;;
41711;SDS011;27399;51.516;13.670;2023-07-08T02:31:33;6.88;;;3.88;;
41711;SDS011;27399;51.516;13.670;2023-07-08T02:33:58;6.78;;;3.67;;
41711;SDS011;27399;51.516;13.670;2023-07-08T02:36:24;5.75;;;3.72;;
41711;SDS011;27399;51.516;13.670;2023-07-08T02:38:49;11.73;;;4.25;;
41711;SDS011;27399;51.516;13.670;2023-07-08T02:41:15;7.57;;;3.40;;
41711;SDS011;27399;51.516;13.670;2023-07-08T02:43:41;7.35;;;3.47;;
41711;SDS011;27399;51.516;13.670;2023-07-08T02:46:07;9.02;;;4.00;;
41711;SDS011;27399;51.516;13.670;2023-07-08T02:48:32;8.07;;;3.90;;
41711;SDS011;27399;51.516;13.670;2023-07-08T02:51:02;5.80;;;3.88;;
41711;SDS011;27399;51.516;13.670;2023-07-08T02:53:29;6.68;;;4.30;;
41711;SDS011;27399;51.516;13.670;2023-07-08T02:55:55;7.70;;;4.07;;
41711;SDS011;27399;51.516;13.670;2023-07-08T02:58:20;12.00;;;3.72;;
41711;SDS011;27399;51.516;13.670;2023-07-08T03:00:55;6.13;;;3.65;;
41711;SDS011;27399;51.516;13.670;2023-07-08T03:03:24;9.07;;;4.28;;
41711;SDS011;27399;51.516;13.670;2023-07-08T03:05:53;7.05;;;3.95;;
41711;SDS011;27399;51.516;13.670;2023-07-08T03:08:30;12.23;;;3.92;;
41711;SDS011;27399;51.516;13.670;2023-07-08T03:10:57;8.43;;;4.40;;
41711;SDS011;27399;51.516;13.670;2023-07-08T03:13:24;11.30;;;4.20;;
41711;SDS011;27399;51.516;13.670;2023-07-08T03:15:51;9.40;;;3.83;;
41711;SDS011;27399;51.516;13.670;2023-07-08T03:18:17;10.25;;;4.28;;
41711;SDS011;27399;51.516;13.670;2023-07-08T03:20:43;10.70;;;3.85;;
41711;SDS011;27399;51.516;13.670;2023-07-08T03:23:10;7.72;;;4.28;;
41711;SDS011;27399;51.516;13.670;2023-07-08T03:25:36;6.03;;;3.47;;
41711;SDS011;27399;51.516;13.670;2023-07-08T03:28:02;16.35;;;5.00;;
41711;SDS011;27399;51.516;13.670;2023-07-08T03:30:31;6.55;;;3.65;;
41711;SDS011;27399;51.516;13.670;2023-07-08T03:32:58;7.00;;;3.80;;
41711;SDS011;27399;51.516;13.670;2023-07-08T03:35:24;9.18;;;4.10;;
41711;SDS011;27399;51.516;13.670;2023-07-08T03:37:50;7.50;;;4.10;;
41711;SDS011;27399;51.516;13.670;2023-07-08T03:40:17;5.35;;;4.20;;
41711;SDS011;27399;51.516;13.670;2023-07-08T03:42:42;6.75;;;4.10;;
41711;SDS011;27399;51.516;13.670;2023-07-08T03:45:08;8.40;;;3.42;;
41711;SDS011;27399;51.516;13.670;2023-07-08T03:47:34;8.38;;;4.50;;
41711;SDS011;27399;51.516;13.670;2023-07-08T03:49:59;9.32;;;4.18;;
41711;SDS011;27399;51.516;13.670;2023-07-08T03:52:25;5.00;;;3.55;;
41711;SDS011;27399;51.516;13.670;2023-07-08T03:54:51;11.38;;;3.92;;
41711;SDS011;27399;51.516;13.670;2023-07-08T03:57:16;8.63;;;3.85;;
41711;SDS011;27399;51.516;13.670;2023-07-08T03:59:42;9.40;;;4.40;;
41711;SDS011;27399;51.516;13.670;2023-07-08T04:02:10;9.52;;;4.43;;
41711;SDS011;27399;51.516;13.670;2023-07-08T04:04:36;9.65;;;4.00;;
41711;SDS011;27399;51.516;13.670;2023-07-08T04:07:05;7.15;;;4.20;;
41711;SDS011;27399;51.516;13.670;2023-07-08T04:09:31;11.48;;;4.53;;
41711;SDS011;27399;51.516;13.670;2023-07-08T04:11:57;5.20;;;3.60;;
41711;SDS011;27399;51.516;13.670;2023-07-08T04:14:25;12.85;;;4.75;;
41711;SDS011;27399;51.516;13.670;2023-07-08T04:16:55;5.80;;;3.88;;
41711;SDS011;27399;51.516;13.670;2023-07-08T04:19:23;8.30;;;4.35;;
41711;SDS011;27399;51.516;13.670;2023-07-08T04:21:50;8.63;;;4.90;;
41711;SDS011;27399;51.516;13.670;2023-07-08T04:24:16;7.97;;;3.90;;
41711;SDS011;27399;51.516;13.670;2023-07-08T04:26:43;10.73;;;3.70;;
41711;SDS011;27399;51.516;13.670;2023-07-08T04:29:15;5.97;;;4.00;;
41711;SDS011;27399;51.516;13.670;2023-07-08T04:31:43;7.35;;;4.00;;
41711;SDS011;27399;51.516;13.670;2023-07-08T04:34:09;12.20;;;4.32;;
41711;SDS011;27399;51.516;13.670;2023-07-08T04:36:35;9.07;;;4.05;;
41711;SDS011;27399;51.516;13.670;2023-07-08T04:39:04;10.82;;;4.28;;
41711;SDS011;27399;51.516;13.670;2023-07-08T04:41:31;11.10;;;4.03;;
41711;SDS011;27399;51.516;13.670;2023-07-08T04:43:57;8.98;;;3.88;;
41711;SDS011;27399;51.516;13.670;2023-07-08T04:46:30;10.05;;;4.05;;
41711;SDS011;27399;51.516;13.670;2023-07-08T04:49:02;8.30;;;3.78;;
41711;SDS011;27399;51.516;13.670;2023-07-08T04:51:29;14.95;;;4.35;;
41711;SDS011;27399;51.516;13.670;2023-07-08T04:53:55;7.32;;;4.07;;
41711;SDS011;27399;51.516;13.670;2023-07-08T04:56:21;7.85;;;3.97;;
41711;SDS011;27399;51.516;13.670;2023-07-08T04:58:48;10.27;;;4.50;;
41711;SDS011;27399;51.516;13.670;2023-07-08T05:01:14;10.40;;;4.30;;
41711;SDS011;27399;51.516;13.670;2023-07-08T05:03:39;8.82;;;3.72;;
41711;SDS011;27399;51.516;13.670;2023-07-08T05:06:05;8.52;;;3.97;;
41711;SDS011;27399;51.516;13.670;2023-07-08T05:08:30;8.00;;;4.03;;
41711;SDS011;27399;51.516;13.670;2023-07-08T05:10:56;8.68;;;4.68;;
41711;SDS011;27399;51.516;13.670;2023-07-08T05:13:23;6.90;;;4.50;;
41711;SDS011;27399;51.516;13.670;2023-07-08T05:15:48;8.40;;;4.50;;
41711;SDS011;27399;51.516;13.670;2023-07-08T05:18:14;6.78;;;4.53;;
41711;SDS011;27399;51.516;13.670;2023-07-08T05:20:39;6.72;;;4.20;;
41711;SDS011;27399;51.516;13.670;2023-07-08T05:23:05;8.75;;;4.72;;
41711;SDS011;27399;51.516;13.670;2023-07-08T05:25:31;8.55;;;4.10;;
41711;SDS011;27399;51.516;13.670;2023-07-08T05:27:58;11.05;;;4.40;;
41711;SDS011;27399;51.516;13.670;2023-07-08T05:30:23;15.15;;;4.47;;
41711;SDS011;27399;51.516;13.670;2023-07-08T05:32:49;20.63;;;4.65;;
41711;SDS011;27399;51.516;13.670;2023-07-08T05:35:15;14.38;;;4.00;;
41711;SDS011;27399;51.516;13.670;2023-07-08T05:37:40;7.95;;;3.83;;
41711;SDS011;27399;51.516;13.670;2023-07-08T05:40:09;9.70;;;4.10;;
41711;SDS011;27399;51.516;13.670;2023-07-08T05:42:35;8.05;;;4.13;;
41711;SDS011;27399;51.516;13.670;2023-07-08T05:45:01;8.18;;;4.07;;
41711;SDS011;27399;51.516;13.670;2023-07-08T05:47:27;5.43;;;3.70;;
41711;SDS011;27399;51.516;13.670;2023-07-08T05:49:53;10.38;;;4.22;;
41711;SDS011;27399;51.516;13.670;2023-07-08T05:52:18;7.32;;;3.53;;
41711;SDS011;27399;51.516;13.670;2023-07-08T05:54:44;5.53;;;3.40;;
41711;SDS011;27399;51.516;13.670;2023-07-08T05:57:10;7.22;;;3.60;;
41711;SDS011;27399;51.516;13.670;2023-07-08T05:59:36;8.18;;;3.60;;
41711;SDS011;27399;51.516;13.670;2023-07-08T06:02:04;7.25;;;3.50;;
41711;SDS011;27399;51.516;13.670;2023-07-08T06:04:30;6.38;;;3.95;;
41711;SDS011;27399;51.516;13.670;2023-07-08T06:06:56;3.78;;;2.88;;
41711;SDS011;27399;51.516;13.670;2023-07-08T06:09:22;7.07;;;3.20;;
41711;SDS011;27399;51.516;13.670;2023-07-08T06:11:48;5.20;;;3.50;;
41711;SDS011;27399;51.516;13.670;2023-07-08T06:14:13;6.82;;;2.75;;
41711;SDS011;27399;51.516;13.670;2023-07-08T06:16:39;3.88;;;3.20;;
41711;SDS011;27399;51.516;13.670;2023-07-08T06:19:04;9.27;;;3.33;;
41711;SDS011;27399;51.516;13.670;2023-07-08T06:21:30;8.43;;;4.35;;
41711;SDS011;27399;51.516;13.670;2023-07-08T06:23:56;4.25;;;3.22;;
41711;SDS011;27399;51.516;13.670;2023-07-08T06:26:22;5.68;;;2.60;;
41711;SDS011;27399;51.516;13.670;2023-07-08T06:28:48;10.70;;;3.40;;
41711;SDS011;27399;51.516;13.670;2023-07-08T06:31:14;5.85;;;2.85;;
41711;SDS011;27399;51.516;13.670;2023-07-08T06:33:40;6.25;;;3.00;;
41711;SDS011;27399;51.516;13.670;2023-07-08T06:36:05;6.65;;;3.10;;
41711;SDS011;27399;51.516;13.670;2023-07-08T06:38:32;7.38;;;3.13;;
41711;SDS011;27399;51.516;13.670;2023-07-08T06:40:58;4.80;;;2.65;;
41711;SDS011;27399;51.516;13.670;2023-07-08T06:43:23;6.45;;;2.88;;
41711;SDS011;27399;51.516;13.670;2023-07-08T06:45:49;10.52;;;3.08;;
41711;SDS011;27399;51.516;13.670;2023-07-08T06:48:14;13.43;;;3.30;;
41711;SDS011;27399;51.516;13.670;2023-07-08T06:50:46;4.50;;;2.55;;
41711;SDS011;27399;51.516;13.670;2023-07-08T06:53:12;4.10;;;2.35;;
41711;SDS011;27399;51.516;13.670;2023-07-08T06:55:38;3.67;;;2.20;;
41711;SDS011;27399;51.516;13.670;2023-07-08T06:58:04;5.57;;;2.90;;
41711;SDS011;27399;51.516;13.670;2023-07-08T07:00:29;4.55;;;2.75;;
41711;SDS011;27399;51.516;13.670;2023-07-08T07:02:55;96.53;;;8.30;;
41711;SDS011;27399;51.516;13.670;2023-07-08T07:05:21;14.23;;;3.00;;
41711;SDS011;27399;51.516;13.670;2023-07-08T07:07:46;12.98;;;3.67;;
41711;SDS011;27399;51.516;13.670;2023-07-08T07:10:12;3.38;;;2.08;;
41711;SDS011;27399;51.516;13.670;2023-07-08T07:12:37;4.10;;;2.55;;
41711;SDS011;27399;51.516;13.670;2023-07-08T07:15:03;6.15;;;3.03;;
41711;SDS011;27399;51.516;13.670;2023-07-08T07:17:29;5.32;;;3.20;;
41711;SDS011;27399;51.516;13.670;2023-07-08T07:19:55;7.30;;;2.80;;
41711;SDS011;27399;51.516;13.670;2023-07-08T07:22:21;5.78;;;2.80;;
41711;SDS011;27399;51.516;13.670;2023-07-08T07:24:47;6.65;;;2.55;;
41711;SDS011;27399;51.516;13.670;2023-07-08T07:27:13;7.85;;;2.72;;
41711;SDS011;27399;51.516;13.670;2023-07-08T07:29:43;4.82;;;2.88;;
41711;SDS011;27399;51.516;13.670;2023-07-08T07:32:13;4.28;;;2.97;;
41711;SDS011;27399;51.516;13.670;2023-07-08T07:34:40;5.00;;;2.75;;
41711;SDS011;27399;51.516;13.670;2023-07-08T07:37:06;5.70;;;2.70;;
41711;SDS011;27399;51.516;13.670;2023-07-08T07:39:35;4.95;;;2.55;;
41711;SDS011;27399;51.516;13.670;2023-07-08T07:42:01;5.10;;;2.65;;
41711;SDS011;27399;51.516;13.670;2023-07-08T07:44:26;6.53;;;3.22;;
41711;SDS011;27399;51.516;13.670;2023-07-08T07:46:52;6.75;;;2.83;;
41711;SDS011;27399;51.516;13.670;2023-07-08T07:49:19;8.52;;;3.42;;
41711;SDS011;27399;51.516;13.670;2023-07-08T07:51:45;7.05;;;2.70;;
41711;SDS011;27399;51.516;13.670;2023-07-08T07:54:10;11.52;;;2.70;;
41711;SDS011;27399;51.516;13.670;2023-07-08T07:56:36;6.75;;;2.85;;
41711;SDS011;27399;51.516;13.670;2023-07-08T07:59:02;5.40;;;2.88;;
41711;SDS011;27399;51.516;13.670;2023-07-08T08:01:28;4.13;;;2.92;;
41711;SDS011;27399;51.516;13.670;2023-07-08T08:03:54;4.22;;;2.42;;
41711;SDS011;27399;51.516;13.670;2023-07-08T08:06:19;4.80;;;2.80;;
41711;SDS011;27399;51.516;13.670;2023-07-08T08:08:45;7.63;;;3.10;;
41711;SDS011;27399;51.516;13.670;2023-07-08T08:11:11;6.13;;;3.00;;
41711;SDS011;27399;51.516;13.670;2023-07-08T08:13:37;4.55;;;2.70;;
41711;SDS011;27399;51.516;13.670;2023-07-08T08:16:03;9.93;;;3.22;;
41711;SDS011;27399;51.516;13.670;2023-07-08T08:18:29;4.20;;;2.90;;
41711;SDS011;27399;51.516;13.670;2023-07-08T08:20:55;4.65;;;3.03;;
41711;SDS011;27399;51.516;13.670;2023-07-08T08:23:20;5.05;;;2.97;;
41711;SDS011;27399;51.516;13.670;2023-07-08T08:25:46;4.75;;;3.15;;
41711;SDS011;27399;51.516;13.670;2023-07-08T08:28:11;14.85;;;3.28;;
41711;SDS011;27399;51.516;13.670;2023-07-08T08:30:37;3.78;;;2.40;;
41711;SDS011;27399;51.516;13.670;2023-07-08T08:33:03;5.72;;;2.42;;
41711;SDS011;27399;51.516;13.670;2023-07-08T08:35:29;4.68;;;2.80;;
41711;SDS011;27399;51.516;13.670;2023-07-08T08:37:54;5.80;;;3.13;;
41711;SDS011;27399;51.516;13.670;2023-07-08T08:40:20;6.35;;;2.88;;
41711;SDS011;27399;51.516;13.670;2023-07-08T08:42:56;3.65;;;2.80;;
41711;SDS011;27399;51.516;13.670;2023-07-08T08:45:25;5.32;;;2.75;;
41711;SDS011;27399;51.516;13.670;2023-07-08T08:47:54;3.90;;;2.60;;
41711;SDS011;27399;51.516;13.670;2023-07-08T08:50:30;4.25;;;2.70;;
41711;SDS011;27399;51.516;13.670;2023-07-08T08:55:22;5.90;;;3.33;;
41711;SDS011;27399;51.516;13.670;2023-07-08T09:03:17;6.45;;;2.83;;
41711;SDS011;27399;51.516;13.670;2023-07-08T09:05:58;5.50;;;2.55;;
41711;SDS011;27399;51.516;13.670;2023-07-08T09:08:31;9.05;;;3.13;;
41711;SDS011;27399;51.516;13.670;2023-07-08T09:11:00;6.22;;;2.72;;
41711;SDS011;27399;51.516;13.670;2023-07-08T09:13:35;9.35;;;2.78;;
41711;SDS011;27399;51.516;13.670;2023-07-08T09:16:25;4.22;;;2.17;;
41711;SDS011;27399;51.516;13.670;2023-07-08T09:19:10;4.85;;;2.50;;
41711;SDS011;27399;51.516;13.670;2023-07-08T09:21:44;4.10;;;2.70;;
41711;SDS011;27399;51.516;13.670;2023-07-08T09:24:18;5.72;;;2.90;;
41711;SDS011;27399;51.516;13.670;2023-07-08T09:26:49;5.00;;;2.72;;
41711;SDS011;27399;51.516;13.670;2023-07-08T09:29:17;9.88;;;2.55;;
41711;SDS011;27399;51.516;13.670;2023-07-08T09:31:43;5.68;;;3.00;;
41711;SDS011;27399;51.516;13.670;2023-07-08T09:34:10;7.72;;;3.20;;
41711;SDS011;27399;51.516;13.670;2023-07-08T09:36:38;6.03;;;2.80;;
41711;SDS011;27399;51.516;13.670;2023-07-08T09:39:12;5.03;;;2.97;;
41711;SDS011;27399;51.516;13.670;2023-07-08T09:41:40;5.30;;;2.53;;
41711;SDS011;27399;51.516;13.670;2023-07-08T09:44:12;4.22;;;2.60;;
41711;SDS011;27399;51.516;13.670;2023-07-08T09:46:44;4.63;;;2.75;;
41711;SDS011;27399;51.516;13.670;2023-07-08T09:51:38;4.50;;;3.00;;
41711;SDS011;27399;51.516;13.670;2023-07-08T09:54:04;5.00;;;2.65;;
41711;SDS011;27399;51.516;13.670;2023-07-08T09:56:30;4.05;;;2.95;;
41711;SDS011;27399;51.516;13.670;2023-07-08T09:58:55;6.18;;;2.60;;
41711;SDS011;27399;51.516;13.670;2023-07-08T10:01:23;3.80;;;2.50;;
41711;SDS011;27399;51.516;13.670;2023-07-08T10:03:51;4.43;;;2.92;;
41711;SDS011;27399;51.516;13.670;2023-07-08T10:06:23;3.95;;;2.80;;
41711;SDS011;27399;51.516;13.670;2023-07-08T10:08:53;5.93;;;2.80;;
41711;SDS011;27399;51.516;13.670;2023-07-08T10:14:03;4.65;;;2.70;;
41711;SDS011;27399;51.516;13.670;2023-07-08T10:16:36;5.00;;;2.35;;
41711;SDS011;27399;51.516;13.670;2023-07-08T10:19:07;4.72;;;2.70;;
41711;SDS011;27399;51.516;13.670;2023-07-08T10:21:55;5.80;;;2.70;;
41711;SDS011;27399;51.516;13.670;2023-07-08T10:27:21;3.42;;;2.90;;
41711;SDS011;27399;51.516;13.670;2023-07-08T10:32:37;4.70;;;2.97;;
41711;SDS011;27399;51.516;13.670;2023-07-08T10:35:14;5.00;;;3.05;;
41711;SDS011;27399;51.516;13.670;2023-07-08T10:37:50;3.65;;;2.88;;
41711;SDS011;27399;51.516;13.670;2023-07-08T10:43:15;6.25;;;2.92;;
41711;SDS011;27399;51.516;13.670;2023-07-08T10:48:50;5.32;;;2.60;;
41711;SDS011;27399;51.516;13.670;2023-07-08T10:57:28;6.35;;;2.58;;
41711;SDS011;27399;51.516;13.670;2023-07-08T11:00:23;5.53;;;2.90;;
41711;SDS011;27399;51.516;13.670;2023-07-08T11:05:45;4.80;;;2.60;;
41711;SDS011;27399;51.516;13.670;2023-07-08T11:08:23;4.13;;;2.47;;
41711;SDS011;27399;51.516;13.670;2023-07-08T11:11:01;5.68;;;2.33;;
41711;SDS011;27399;51.516;13.670;2023-07-08T11:13:34;3.38;;;2.55;;
41711;SDS011;27399;51.516;13.670;2023-07-08T11:16:11;4.57;;;2.50;;
41711;SDS011;27399;51.516;13.670;2023-07-08T11:18:55;6.00;;;2.78;;
41711;SDS011;27399;51.516;13.670;2023-07-08T11:21:34;3.35;;;2.55;;
41711;SDS011;27399;51.516;13.670;2023-07-08T11:24:12;4.25;;;2.67;;
41711;SDS011;27399;51.516;13.670;2023-07-08T11:26:41;3.85;;;2.72;;
41711;SDS011;27399;51.516;13.670;2023-07-08T11:29:45;7.60;;;2.80;;
41711;SDS011;27399;51.516;13.670;2023-07-08T11:32:11;5.00;;;2.60;;
41711;SDS011;27399;51.516;13.670;2023-07-08T11:34:41;6.05;;;2.65;;
41711;SDS011;27399;51.516;13.670;2023-07-08T11:37:10;3.05;;;2.50;;
41711;SDS011;27399;51.516;13.670;2023-07-08T11:39:38;5.72;;;3.35;;
41711;SDS011;27399;51.516;13.670;2023-07-08T11:42:17;4.18;;;3.10;;
41711;SDS011;27399;51.516;13.670;2023-07-08T11:44:53;4.38;;;2.40;;
41711;SDS011;27399;51.516;13.670;2023-07-08T11:49:57;4.55;;;2.67;;
41711;SDS011;27399;51.516;13.670;2023-07-08T11:52:22;3.65;;;2.38;;
41711;SDS011;27399;51.516;13.670;2023-07-08T11:54:48;4.78;;;3.33;;
41711;SDS011;27399;51.516;13.670;2023-07-08T11:57:29;4.00;;;2.90;;
41711;SDS011;27399;51.516;13.670;2023-07-08T12:00:14;4.80;;;2.53;;
41711;SDS011;27399;51.516;13.670;2023-07-08T12:02:57;5.93;;;2.58;;
41711;SDS011;27399;51.516;13.670;2023-07-08T12:05:29;4.93;;;2.40;;
41711;SDS011;27399;51.516;13.670;2023-07-08T12:07:55;7.82;;;2.63;;
41711;SDS011;27399;51.516;13.670;2023-07-08T12:10:36;3.25;;;2.25;;
41711;SDS011;27399;51.516;13.670;2023-07-08T12:13:14;13.10;;;2.67;;
41711;SDS011;27399;51.516;13.670;2023-07-08T12:15:42;4.75;;;2.95;;
41711;SDS011;27399;51.516;13.670;2023-07-08T12:20:34;3.80;;;2.80;;
41711;SDS011;27399;51.516;13.670;2023-07-08T12:23:04;3.33;;;2.45;;
41711;SDS011;27399;51.516;13.670;2023-07-08T12:25:36;4.43;;;2.22;;
41711;SDS011;27399;51.516;13.670;2023-07-08T12:28:02;4.05;;;2.80;;
41711;SDS011;27399;51.516;13.670;2023-07-08T12:30:28;3.97;;;2.58;;
41711;SDS011;27399;51.516;13.670;2023-07-08T12:32:55;6.72;;;2.92;;
41711;SDS011;27399;51.516;13.670;2023-07-08T12:35:26;6.20;;;2.58;;
41711;SDS011;27399;51.516;13.670;2023-07-08T12:38:03;5.20;;;3.40;;
41711;SDS011;27399;51.516;13.670;2023-07-08T12:40:40;4.30;;;2.40;;
41711;SDS011;27399;51.516;13.670;2023-07-08T12:43:08;7.03;;;2.90;;
41711;SDS011;27399;51.516;13.670;2023-07-08T12:45:35;4.25;;;2.80;;
41711;SDS011;27399;51.516;13.670;2023-07-08T12:48:02;5.45;;;2.58;;
41711;SDS011;27399;51.516;13.670;2023-07-08T12:50:27;6.00;;;2.47;;
41711;SDS011;27399;51.516;13.670;2023-07-08T12:52:53;4.10;;;2.47;;
41711;SDS011;27399;51.516;13.670;2023-07-08T12:55:18;4.18;;;2.63;;
41711;SDS011;27399;51.516;13.670;2023-07-08T12:57:45;4.53;;;2.80;;
41711;SDS011;27399;51.516;13.670;2023-07-08T13:00:21;4.10;;;2.50;;
41711;SDS011;27399;51.516;13.670;2023-07-08T13:02:53;4.22;;;3.00;;
41711;SDS011;27399;51.516;13.670;2023-07-08T13:05:24;4.75;;;2.67;;
41711;SDS011;27399;51.516;13.670;2023-07-08T13:07:51;5.07;;;2.47;;
41711;SDS011;27399;51.516;13.670;2023-07-08T13:10:20;3.35;;;2.40;;
41711;SDS011;27399;51.516;13.670;2023-07-08T13:12:50;4.60;;;2.38;;
41711;SDS011;27399;51.516;13.670;2023-07-08T13:15:23;3.92;;;2.83;;
41711;SDS011;27399;51.516;13.670;2023-07-08T13:17:55;4.05;;;2.70;;
41711;SDS011;27399;51.516;13.670;2023-07-08T13:20:21;5.07;;;2.72;;
41711;SDS011;27399;51.516;13.670;2023-07-08T13:23:02;4.65;;;3.17;;
41711;SDS011;27399;51.516;13.670;2023-07-08T13:25:29;4.97;;;3.15;;
41711;SDS011;27399;51.516;13.670;2023-07-08T13:27:58;4.63;;;3.20;;
41711;SDS011;27399;51.516;13.670;2023-07-08T13:30:39;8.52;;;3.10;;
41711;SDS011;27399;51.516;13.670;2023-07-08T13:33:14;8.98;;;3.38;;
41711;SDS011;27399;51.516;13.670;2023-07-08T13:35:41;3.33;;;2.40;;
41711;SDS011;27399;51.516;13.670;2023-07-08T13:38:15;3.50;;;2.70;;
41711;SDS011;27399;51.516;13.670;2023-07-08T13:40:46;3.63;;;2.50;;
41711;SDS011;27399;51.516;13.670;2023-07-08T13:43:14;4.40;;;2.90;;
41711;SDS011;27399;51.516;13.670;2023-07-08T13:45:44;5.65;;;2.58;;
41711;SDS011;27399;51.516;13.670;2023-07-08T13:50:58;5.32;;;2.58;;
41711;SDS011;27399;51.516;13.670;2023-07-08T13:56:07;3.97;;;2.50;;
41711;SDS011;27399;51.516;13.670;2023-07-08T13:58:42;4.55;;;2.53;;
41711;SDS011;27399;51.516;13.670;2023-07-08T14:01:19;5.88;;;3.20;;
41711;SDS011;27399;51.516;13.670;2023-07-08T14:03:47;8.38;;;2.78;;
41711;SDS011;27399;51.516;13.670;2023-07-08T14:06:17;4.53;;;2.70;;
41711;SDS011;27399;51.516;13.670;2023-07-08T14:08:45;6.57;;;3.10;;
41711;SDS011;27399;51.516;13.670;2023-07-08T14:11:10;6.00;;;3.20;;
41711;SDS011;27399;51.516;13.670;2023-07-08T14:13:36;4.93;;;2.75;;
41711;SDS011;27399;51.516;13.670;2023-07-08T14:16:02;5.45;;;2.80;;
41711;SDS011;27399;51.516;13.670;2023-07-08T14:18:30;4.45;;;2.75;;
41711;SDS011;27399;51.516;13.670;2023-07-08T14:20:57;3.45;;;2.92;;
41711;SDS011;27399;51.516;13.670;2023-07-08T14:23:23;4.68;;;2.65;;
41711;SDS011;27399;51.516;13.670;2023-07-08T14:25:49;3.95;;;3.00;;
41711;SDS011;27399;51.516;13.670;2023-07-08T14:28:15;5.88;;;2.58;;
41711;SDS011;27399;51.516;13.670;2023-07-08T14:30:42;6.00;;;2.72;;
41711;SDS011;27399;51.516;13.670;2023-07-08T14:33:11;4.60;;;2.60;;
41711;SDS011;27399;51.516;13.670;2023-07-08T14:35:38;14.23;;;3.67;;
41711;SDS011;27399;51.516;13.670;2023-07-08T14:38:09;7.57;;;3.22;;
41711;SDS011;27399;51.516;13.670;2023-07-08T14:40:36;7.57;;;2.97;;
41711;SDS011;27399;51.516;13.670;2023-07-08T14:43:04;6.75;;;2.92;;
41711;SDS011;27399;51.516;13.670;2023-07-08T14:45:44;6.32;;;2.70;;
41711;SDS011;27399;51.516;13.670;2023-07-08T14:48:13;11.75;;;4.70;;
41711;SDS011;27399;51.516;13.670;2023-07-08T14:50:39;6.28;;;4.05;;
41711;SDS011;27399;51.516;13.670;2023-07-08T14:53:05;5.63;;;3.50;;
41711;SDS011;27399;51.516;13.670;2023-07-08T14:55:30;8.05;;;3.22;;
41711;SDS011;27399;51.516;13.670;2023-07-08T14:57:57;3.45;;;2.53;;
41711;SDS011;27399;51.516;13.670;2023-07-08T15:00:23;3.67;;;2.95;;
41711;SDS011;27399;51.516;13.670;2023-07-08T15:02:49;4.65;;;3.00;;
41711;SDS011;27399;51.516;13.670;2023-07-08T15:05:26;3.47;;;2.40;;
41711;SDS011;27399;51.516;13.670;2023-07-08T15:07:56;14.48;;;3.00;;
41711;SDS011;27399;51.516;13.670;2023-07-08T15:10:24;3.05;;;2.55;;
41711;SDS011;27399;51.516;13.670;2023-07-08T15:12:52;6.35;;;2.80;;
41711;SDS011;27399;51.516;13.670;2023-07-08T15:15:23;6.80;;;2.50;;
41711;SDS011;27399;51.516;13.670;2023-07-08T15:17:52;5.10;;;2.90;;
41711;SDS011;27399;51.516;13.670;2023-07-08T15:20:18;2.90;;;2.53;;
41711;SDS011;27399;51.516;13.670;2023-07-08T15:22:45;9.40;;;3.15;;
41711;SDS011;27399;51.516;13.670;2023-07-08T15:25:11;3.20;;;2.60;;
41711;SDS011;27399;51.516;13.670;2023-07-08T15:27:39;4.93;;;2.83;;
41711;SDS011;27399;51.516;13.670;2023-07-08T15:30:14;5.47;;;3.53;;